Terminal Aerodrome Forecast
Issued by NWS

Current Version | Previous Version | Text Only | Print | Product List | Glossary On
Versions: 1 2 3 4 5 6 7 8 9 10 11 12 13 14 15
730
FTUS45 KTFX 160548
TAFHLN
TAF
KHLN 160548Z 1606/1706 VRB03KT P6SM VCFG SCT015
      TEMPO 1611/1615 3SM BR SCT005
     FM161900 VRB06KT P6SM SCT100 BKN180=

USA.gov is the U.S. government's official web portal to all federal, state and local government web resources and services.